Longwood, North Carolina
Current Conditions -  °F | °C
As of 2:53 AM on Wednesday 22 Oct 2014 (Local Time) from KCRE Reporting Station
Clear Clear  
Wind Chill: 58°   Ceiling: Unl
Heat Index: 58°   Visibility: 10mi
Dew Point: 46°   Wind: 6mph
Humidity: 65%   Direction: 340°NNW
Pressure: 29.9"   Gusts: NA
Location:  34°N, 78.54°W
Report Text: KCRE 220653Z AUTO 34005KT 10SM CLR 14/08 A2990 RMK AO1 SLP127 T01440078
Loading
Personal Weather Stations






























Interactive Weather Map
Tropical Storm Tracking
New forecast layout! Learn more

10-Day Weather Forecast

Advertisements
Track Severe Weather on mobile